Dunfermline, Illinois
Current Conditions -  °F | °C
As of 12:54 AM on Sunday 23 Nov 2014 (Local Time) from KPIA Reporting Station
Overcast Overcast  
Wind Chill: 54°   Ceiling: 1100
Heat Index: 54°   Visibility: 9mi
Dew Point: 48°   Wind: 14mph
Humidity: 80%   Direction: 190°S
Pressure: 29.81"   Gusts: NA
Location:  40.49°N, 90.03°W
Report Text: KPIA 230654Z 19012KT 9SM OVC011 12/09 A2981 RMK AO2 SLP095 T01220089
Loading
Personal Weather Stations






























Interactive Weather Map New forecast layout! Learn more

10-Day Weather Forecast

Advertisements
Track Severe Weather on mobile